Time;durP1;ratioP1;P1;durP2;ratioP2;P2;SDS_P1;SDS_P2;PMS_P1;PMS_P2;Temp;Humidity;BMP_temperature;BMP_pressure;BME280_temperature;BME280_humidity;BME280_pressure;Samples;Min_cycle;Max_cycle;Signal;HPM_P1;HPM_P2
2021/11/20 00:02:15;;;;;;;;;;;4.60;99.90;;;;;;5070215;28;19908;-75
2021/11/20 00:04:41;;;;;;;;;;;4.60;99.90;;;;;;5069884;28;20067;-74
2021/11/20 00:07:07;;;;;;;;;;;4.60;99.90;;;;;;5069600;28;19908;-75
2021/11/20 00:09:33;;;;;;;;;;;4.60;99.90;;;;;;5063289;28;19913;-74
2021/11/20 00:12:01;;;;;;;;;;;4.60;99.90;;;;;;5055333;28;20403;-75
2021/11/20 00:14:28;;;;;;;;;;;4.60;99.90;;;;;;5053622;28;19932;-75
2021/11/20 00:16:54;;;;;;;;;;;4.60;99.90;;;;;;5053612;28;20381;-75
2021/11/20 00:19:22;;;;;;;;;;;4.60;99.90;;;;;;5053904;28;19919;-76
2021/11/20 00:22:10;;;;;;;;;;;4.50;99.90;;;;;;5052731;28;19908;-75
2021/11/20 00:24:39;;;;;;;;;;;4.50;99.90;;;;;;5067664;28;20326;-75
2021/11/20 00:27:06;;;;;;;;;;;4.60;99.90;;;;;;5072637;28;19951;-75
2021/11/20 00:29:59;;;;;;;;;;;4.60;99.90;;;;;;5072313;28;19936;-77
2021/11/20 00:32:28;;;;;;;;;;;4.60;99.90;;;;;;5072337;28;19934;-76
2021/11/20 00:34:59;;;;;;;;;;;4.60;99.90;;;;;;5072439;28;20341;-76
2021/11/20 00:37:25;;;;;;;;;;;4.60;99.90;;;;;;5072338;28;19955;-75
2021/11/20 00:39:51;;;;;;;;;;;4.60;99.90;;;;;;5069540;28;19951;-76
2021/11/20 00:42:17;;;;;;;;;;;4.60;99.90;;;;;;5057045;28;19979;-77
2021/11/20 00:44:42;;;;;;;;;;;4.50;99.90;;;;;;5053150;28;19955;-75
2021/11/20 00:47:08;;;;;;;;;;;4.50;99.90;;;;;;5051835;28;20103;-75
2021/11/20 00:49:34;;;;;;;;;;;4.50;99.90;;;;;;5052871;28;20361;-74
2021/11/20 00:51:59;;;;;;;;;;;4.60;99.90;;;;;;5052287;28;19913;-75
2021/11/20 00:54:25;;;;;;;;;;;4.60;99.90;;;;;;5052786;28;19916;-75
2021/11/20 00:56:50;;;;;;;;;;;4.60;99.90;;;;;;5052735;28;19920;-76
2021/11/20 00:59:16;;;;;;;;;;;4.60;99.90;;;;;;5052849;28;19909;-75
2021/11/20 01:01:44;;;;;;;;;;;4.60;99.90;;;;;;5052329;28;19916;-75
2021/11/20 01:04:10;;;;;;;;;;;4.60;99.90;;;;;;5051661;28;20332;-75
2021/11/20 01:06:36;;;;;;;;;;;4.60;99.90;;;;;;5052536;28;19909;-75
2021/11/20 01:09:03;;;;;;;;;;;4.60;99.90;;;;;;5054585;28;20017;-75
2021/11/20 01:11:33;;;;;;;;;;;4.60;99.90;;;;;;5060145;28;19920;-74
2021/11/20 01:14:00;;;;;;;;;;;4.60;99.90;;;;;;5054721;28;19909;-75
2021/11/20 01:16:26;;;;;;;;;;;4.60;99.90;;;;;;5052319;28;19956;-77
2021/11/20 01:18:51;;;;;;;;;;;4.60;99.90;;;;;;5052419;28;19955;-75
2021/11/20 01:21:17;;;;;;;;;;;4.60;99.90;;;;;;5051846;28;20281;-74
2021/11/20 01:23:43;;;;;;;;;;;4.50;99.90;;;;;;5050946;28;19995;-75
2021/11/20 01:26:09;;;;;;;;;;;4.60;99.90;;;;;;5052326;28;19909;-75
2021/11/20 01:28:37;;;;;;;;;;;4.60;99.90;;;;;;5052178;28;19909;-75
2021/11/20 01:31:04;;;;;;;;;;;4.60;99.90;;;;;;5052059;28;20320;-75
2021/11/20 01:33:30;;;;;;;;;;;4.50;99.90;;;;;;5050231;28;20293;-76
2021/11/20 01:35:56;;;;;;;;;;;4.50;99.90;;;;;;5051981;28;20011;-75
2021/11/20 01:38:21;;;;;;;;;;;4.50;99.90;;;;;;5054248;28;19956;-75
2021/11/20 01:40:47;;;;;;;;;;;4.50;99.90;;;;;;5060034;28;20586;-75
2021/11/20 01:43:13;;;;;;;;;;;4.50;99.90;;;;;;5052019;28;19966;-75
2021/11/20 01:45:44;;;;;;;;;;;4.60;99.90;;;;;;5051960;28;19908;-75
2021/11/20 01:48:28;;;;;;;;;;;4.60;99.90;;;;;;5051888;28;20007;-77
2021/11/20 01:51:01;;;;;;;;;;;4.50;99.90;;;;;;5049832;28;20449;-76
2021/11/20 01:53:36;;;;;;;;;;;4.50;99.90;;;;;;5052116;28;19909;-75
2021/11/20 01:56:17;;;;;;;;;;;4.50;99.90;;;;;;5064601;28;20373;-75
2021/11/20 01:58:45;;;;;;;;;;;4.50;99.90;;;;;;5070852;28;19954;-75
2021/11/20 02:01:18;;;;;;;;;;;4.50;99.90;;;;;;5070267;28;19936;-75
2021/11/20 02:03:55;;;;;;;;;;;4.50;99.90;;;;;;5071353;28;20289;-75
2021/11/20 02:06:30;;;;;;;;;;;4.50;99.90;;;;;;5070835;28;19928;-76
2021/11/20 02:09:00;;;;;;;;;;;4.50;99.90;;;;;;5063677;28;19999;-76
2021/11/20 02:11:36;;;;;;;;;;;4.50;99.90;;;;;;5060260;28;19917;-75
2021/11/20 02:14:02;;;;;;;;;;;4.50;99.90;;;;;;5051397;28;19947;-75
2021/11/20 02:16:29;;;;;;;;;;;4.50;99.90;;;;;;5051530;28;19944;-75
2021/11/20 02:18:56;;;;;;;;;;;4.50;99.90;;;;;;5051330;28;19909;-75
2021/11/20 02:21:37;;;;;;;;;;;4.50;99.90;;;;;;5051003;28;19908;-75
2021/11/20 02:24:02;;;;;;;;;;;4.50;99.90;;;;;;5049995;28;19916;-75
2021/11/20 02:26:28;;;;;;;;;;;4.50;99.90;;;;;;5051306;28;19912;-75
2021/11/20 02:28:55;;;;;;;;;;;4.50;99.90;;;;;;5050107;28;19912;-75
2021/11/20 02:31:20;;;;;;;;;;;4.50;99.90;;;;;;5050873;28;19920;-75
2021/11/20 02:33:47;;;;;;;;;;;4.50;99.90;;;;;;5051209;28;19908;-75
2021/11/20 02:36:17;;;;;;;;;;;4.50;99.90;;;;;;5051296;28;19920;-75
2021/11/20 02:39:02;;;;;;;;;;;4.50;99.90;;;;;;5053706;28;20003;-75
2021/11/20 02:41:29;;;;;;;;;;;4.50;99.90;;;;;;5059477;28;19920;-75
2021/11/20 02:43:56;;;;;;;;;;;4.50;99.90;;;;;;5055284;28;20308;-74
2021/11/20 02:46:23;;;;;;;;;;;4.50;99.90;;;;;;5055305;28;19909;-75
2021/11/20 02:48:49;;;;;;;;;;;4.50;99.90;;;;;;5055166;28;19999;-75
2021/11/20 02:51:19;;;;;;;;;;;4.50;99.90;;;;;;5054531;28;20023;-75
2021/11/20 02:53:47;;;;;;;;;;;4.50;99.90;;;;;;5055048;28;19909;-75
2021/11/20 02:56:15;;;;;;;;;;;4.50;99.90;;;;;;5053811;28;19909;-75
2021/11/20 02:58:41;;;;;;;;;;;4.50;99.90;;;;;;5055181;28;19909;-75
2021/11/20 03:01:12;;;;;;;;;;;4.50;99.90;;;;;;5054643;28;19955;-75
2021/11/20 03:03:37;;;;;;;;;;;4.50;99.90;;;;;;5054797;28;19984;-75
2021/11/20 03:06:03;;;;;;;;;;;4.50;99.90;;;;;;5055040;28;19955;-75
2021/11/20 03:08:29;;;;;;;;;;;4.50;99.90;;;;;;5057862;28;20400;-75
2021/11/20 03:10:54;;;;;;;;;;;4.50;99.90;;;;;;5062918;28;20346;-77
2021/11/20 03:13:20;;;;;;;;;;;4.50;99.90;;;;;;5054825;28;19928;-75
2021/11/20 03:15:45;;;;;;;;;;;4.50;99.90;;;;;;5054757;28;19916;-75
2021/11/20 03:18:11;;;;;;;;;;;4.50;99.90;;;;;;5054660;28;20043;-75
2021/11/20 03:20:38;;;;;;;;;;;4.50;99.90;;;;;;5054090;28;19909;-75
2021/11/20 03:23:15;;;;;;;;;;;4.50;99.90;;;;;;5054634;28;19916;-75
2021/11/20 03:25:40;;;;;;;;;;;4.50;99.90;;;;;;5054554;28;20304;-76
2021/11/20 03:28:06;;;;;;;;;;;4.50;99.90;;;;;;5054545;28;19909;-75
2021/11/20 03:30:31;;;;;;;;;;;4.50;99.90;;;;;;5054038;28;19920;-75
2021/11/20 03:32:57;;;;;;;;;;;4.50;99.90;;;;;;5054158;28;19992;-75
2021/11/20 03:35:23;;;;;;;;;;;4.50;99.90;;;;;;5054359;28;19999;-75
2021/11/20 03:37:48;;;;;;;;;;;4.50;99.90;;;;;;5054331;28;20704;-75
2021/11/20 03:40:15;;;;;;;;;;;4.50;99.90;;;;;;5066111;28;19961;-75
2021/11/20 03:42:41;;;;;;;;;;;4.50;99.90;;;;;;5061340;28;19909;-76
2021/11/20 03:45:07;;;;;;;;;;;4.50;99.90;;;;;;5054137;28;19913;-75
2021/11/20 03:47:32;;;;;;;;;;;4.50;99.90;;;;;;5053887;28;19908;-75
2021/11/20 03:49:58;;;;;;;;;;;4.50;99.90;;;;;;5053753;28;19952;-75
2021/11/20 03:52:24;;;;;;;;;;;4.50;99.90;;;;;;5053928;28;20358;-75
2021/11/20 03:54:50;;;;;;;;;;;4.50;99.90;;;;;;5053180;28;19908;-75
2021/11/20 03:57:16;;;;;;;;;;;4.50;99.90;;;;;;5053982;28;19908;-74
2021/11/20 03:59:41;;;;;;;;;;;4.50;99.90;;;;;;5052160;28;19934;-76
2021/11/20 04:02:07;;;;;;;;;;;4.50;99.90;;;;;;5053610;28;20250;-75
2021/11/20 04:04:32;;;;;;;;;;;4.60;99.90;;;;;;5053798;28;19966;-75
2021/11/20 04:06:58;;;;;;;;;;;4.60;99.90;;;;;;5073246;28;20311;-75
2021/11/20 04:09:24;;;;;;;;;;;4.50;99.90;;;;;;5065324;28;19920;-76
2021/11/20 04:11:50;;;;;;;;;;;4.60;99.90;;;;;;5057985;28;19919;-75
2021/11/20 04:14:16;;;;;;;;;;;4.60;99.90;;;;;;5054125;28;19909;-77
2021/11/20 04:16:42;;;;;;;;;;;4.60;99.90;;;;;;5053627;28;19908;-75
2021/11/20 04:19:08;;;;;;;;;;;4.50;99.90;;;;;;5054102;28;19919;-75
2021/11/20 04:21:34;;;;;;;;;;;4.50;99.90;;;;;;5053184;28;19942;-75
2021/11/20 04:23:59;;;;;;;;;;;4.50;99.90;;;;;;5053493;28;19913;-74
2021/11/20 04:26:26;;;;;;;;;;;4.60;99.90;;;;;;5053567;28;19909;-75
2021/11/20 04:28:52;;;;;;;;;;;4.60;99.90;;;;;;5053913;28;20374;-74
2021/11/20 04:31:19;;;;;;;;;;;4.50;99.90;;;;;;5053297;28;19960;-75
2021/11/20 04:33:45;;;;;;;;;;;4.50;99.90;;;;;;5053611;28;20303;-75
2021/11/20 04:36:11;;;;;;;;;;;4.60;99.90;;;;;;5053256;28;20005;-74
2021/11/20 04:38:36;;;;;;;;;;;4.60;99.90;;;;;;5056918;28;19954;-77
2021/11/20 04:41:02;;;;;;;;;;;4.60;99.90;;;;;;5061100;28;19908;-74
2021/11/20 04:43:28;;;;;;;;;;;4.60;99.90;;;;;;5053261;28;19975;-74
2021/11/20 04:45:54;;;;;;;;;;;4.50;99.90;;;;;;5052879;28;20369;-74
2021/11/20 04:48:19;;;;;;;;;;;4.50;99.90;;;;;;5053504;28;19916;-74
2021/11/20 04:50:46;;;;;;;;;;;4.60;99.90;;;;;;5052459;28;20289;-75
2021/11/20 04:53:11;;;;;;;;;;;4.60;99.90;;;;;;5052968;28;19920;-74
2021/11/20 04:55:37;;;;;;;;;;;4.60;99.90;;;;;;5053044;28;19909;-75
2021/11/20 04:58:03;;;;;;;;;;;4.60;99.90;;;;;;5052973;28;20293;-78
2021/11/20 05:00:31;;;;;;;;;;;4.50;99.90;;;;;;5052384;28;19944;-77
2021/11/20 05:02:57;;;;;;;;;;;4.40;99.90;;;;;;5053071;28;19909;-74
2021/11/20 05:05:22;;;;;;;;;;;4.40;99.90;;;;;;5052980;28;20288;-75
2021/11/20 05:07:48;;;;;;;;;;;4.30;99.90;;;;;;5052835;28;19958;-75
2021/11/20 05:10:14;;;;;;;;;;;4.30;99.90;;;;;;5059630;28;20017;-75
2021/11/20 05:12:40;;;;;;;;;;;4.30;99.90;;;;;;5060455;28;19920;-75
2021/11/20 05:15:06;;;;;;;;;;;4.30;99.90;;;;;;5052435;28;19909;-76
2021/11/20 05:17:32;;;;;;;;;;;4.30;99.90;;;;;;5051434;28;19909;-74
2021/11/20 05:19:58;;;;;;;;;;;4.30;99.90;;;;;;5052217;28;20384;-74
2021/11/20 05:22:23;;;;;;;;;;;4.20;99.90;;;;;;5052467;28;19916;-76
2021/11/20 05:24:49;;;;;;;;;;;4.30;99.90;;;;;;5052576;28;20464;-74
2021/11/20 05:27:14;;;;;;;;;;;4.30;99.90;;;;;;5052560;28;19916;-74
2021/11/20 05:32:11;;;;;;;;;;;4.30;99.90;;;;;;5052357;28;19912;-77
2021/11/20 05:34:37;;;;;;;;;;;4.30;99.90;;;;;;5052346;28;19916;-74
2021/11/20 05:37:03;;;;;;;;;;;4.30;99.90;;;;;;5052255;28;19916;-74
2021/11/20 05:39:29;;;;;;;;;;;4.30;99.90;;;;;;5056922;28;19999;-74
2021/11/20 05:41:54;;;;;;;;;;;4.30;99.90;;;;;;5057222;28;19915;-75
2021/11/20 05:44:20;;;;;;;;;;;4.20;99.90;;;;;;5052305;28;20393;-75
2021/11/20 05:46:46;;;;;;;;;;;4.30;99.90;;;;;;5052131;28;19941;-77
2021/11/20 05:49:11;;;;;;;;;;;4.30;99.90;;;;;;5052145;28;19909;-74
2021/11/20 05:51:37;;;;;;;;;;;4.30;99.90;;;;;;5051490;28;20361;-74
2021/11/20 05:54:04;;;;;;;;;;;4.30;99.90;;;;;;5052087;28;19916;-74
2021/11/20 05:56:32;;;;;;;;;;;4.30;99.90;;;;;;5057778;28;19966;-74
2021/11/20 05:58:58;;;;;;;;;;;4.40;99.90;;;;;;5071164;28;20116;-74
2021/11/20 06:01:24;;;;;;;;;;;4.30;99.90;;;;;;5069491;28;19909;-74
2021/11/20 06:03:49;;;;;;;;;;;4.40;99.90;;;;;;5071235;28;19909;-76
2021/11/20 06:06:15;;;;;;;;;;;4.40;99.90;;;;;;5053697;28;19936;-74
2021/11/20 06:08:41;;;;;;;;;;;4.40;99.90;;;;;;5055989;28;19909;-74
2021/11/20 06:11:07;;;;;;;;;;;4.30;99.90;;;;;;5064028;28;19916;-74
2021/11/20 06:13:33;;;;;;;;;;;4.30;99.90;;;;;;5070766;28;19942;-74
2021/11/20 06:15:59;;;;;;;;;;;4.30;99.90;;;;;;5070783;28;19999;-74
2021/11/20 06:18:24;;;;;;;;;;;4.30;99.90;;;;;;5070226;28;20046;-74
2021/11/20 06:20:51;;;;;;;;;;;4.30;99.90;;;;;;5070552;28;19908;-74
2021/11/20 06:23:17;;;;;;;;;;;4.40;99.90;;;;;;5067654;28;19909;-75
2021/11/20 06:25:42;;;;;;;;;;;4.40;99.90;;;;;;5051551;28;20366;-74
2021/11/20 06:28:08;;;;;;;;;;;4.50;99.90;;;;;;5051419;28;20013;-75
2021/11/20 06:30:33;;;;;;;;;;;4.50;99.90;;;;;;5051114;28;20381;-75
2021/11/20 06:32:59;;;;;;;;;;;4.60;99.90;;;;;;5050098;28;20012;-74
2021/11/20 06:35:26;;;;;;;;;;;4.50;99.90;;;;;;5051505;28;19916;-74
2021/11/20 06:37:52;;;;;;;;;;;4.60;99.90;;;;;;5051583;28;19913;-74
2021/11/20 06:40:23;;;;;;;;;;;4.50;99.90;;;;;;5058674;28;19970;-74
2021/11/20 06:42:48;;;;;;;;;;;4.60;99.90;;;;;;5059405;28;19915;-74
2021/11/20 06:45:15;;;;;;;;;;;4.50;99.90;;;;;;5051464;28;19999;-76
2021/11/20 06:47:41;;;;;;;;;;;4.40;99.90;;;;;;5051342;28;19909;-74
2021/11/20 06:50:07;;;;;;;;;;;4.40;99.90;;;;;;5050975;28;19954;-74
2021/11/20 06:52:32;;;;;;;;;;;4.30;99.90;;;;;;5051077;28;19920;-75
2021/11/20 06:54:58;;;;;;;;;;;4.40;99.90;;;;;;5051149;28;19919;-76
2021/11/20 06:57:47;;;;;;;;;;;4.40;99.90;;;;;;5051291;28;20282;-74
2021/11/20 07:00:26;;;;;;;;;;;4.40;99.90;;;;;;5050729;28;19909;-74
2021/11/20 07:02:54;;;;;;;;;;;4.60;99.90;;;;;;5051275;28;19951;-74
2021/11/20 07:05:20;;;;;;;;;;;4.60;99.90;;;;;;5051176;28;20389;-73
2021/11/20 07:07:46;;;;;;;;;;;4.70;99.90;;;;;;5051247;28;20022;-74
2021/11/20 07:10:13;;;;;;;;;;;4.70;99.90;;;;;;5056036;28;20050;-74
2021/11/20 07:12:38;;;;;;;;;;;4.70;99.90;;;;;;5057446;28;19917;-76
2021/11/20 07:15:04;;;;;;;;;;;4.70;99.90;;;;;;5051079;28;20400;-74
2021/11/20 07:17:29;;;;;;;;;;;4.70;99.90;;;;;;5051763;28;19916;-74
2021/11/20 07:19:55;;;;;;;;;;;4.70;99.90;;;;;;5052237;28;19909;-74
2021/11/20 07:22:20;;;;;;;;;;;4.60;99.90;;;;;;5051610;28;19909;-76
2021/11/20 07:24:46;;;;;;;;;;;4.60;99.90;;;;;;5049838;28;19908;-74
2021/11/20 07:27:11;;;;;;;;;;;4.60;99.90;;;;;;5051286;28;20002;-73
2021/11/20 07:29:37;;;;;;;;;;;4.60;99.90;;;;;;5049619;28;19936;-75
2021/11/20 07:32:03;;;;;;;;;;;4.60;99.90;;;;;;5054149;28;19913;-74
2021/11/20 07:34:28;;;;;;;;;;;4.70;99.90;;;;;;5054860;28;20188;-74
2021/11/20 07:36:55;;;;;;;;;;;4.90;99.90;;;;;;5054492;28;19967;-74
2021/11/20 07:39:21;;;;;;;;;;;4.90;99.90;;;;;;5059270;28;19940;-77
2021/11/20 07:41:47;;;;;;;;;;;4.80;99.90;;;;;;5061015;28;19909;-74
2021/11/20 07:44:12;;;;;;;;;;;5.00;99.90;;;;;;5054645;28;19942;-73
2021/11/20 07:46:38;;;;;;;;;;;5.00;99.90;;;;;;5054506;28;19913;-75
2021/11/20 07:49:04;;;;;;;;;;;4.90;99.90;;;;;;5053405;28;19909;-74
2021/11/20 07:51:30;;;;;;;;;;;5.00;99.90;;;;;;5053974;28;19924;-74
2021/11/20 07:53:55;;;;;;;;;;;5.10;99.90;;;;;;5054487;28;19909;-76
2021/11/20 07:56:22;;;;;;;;;;;5.10;99.90;;;;;;5054557;28;19987;-74
2021/11/20 07:58:47;;;;;;;;;;;5.10;99.90;;;;;;5054284;28;19909;-77
2021/11/20 08:01:14;;;;;;;;;;;5.10;99.90;;;;;;5052581;28;19935;-74
2021/11/20 08:03:39;;;;;;;;;;;5.00;99.90;;;;;;5054941;28;19959;-78
2021/11/20 08:06:05;;;;;;;;;;;5.00;99.90;;;;;;5054080;28;20365;-74
2021/11/20 08:08:31;;;;;;;;;;;5.00;99.90;;;;;;5055608;28;20281;-74
2021/11/20 08:10:57;;;;;;;;;;;5.10;99.90;;;;;;5058405;28;19923;-74
2021/11/20 08:13:22;;;;;;;;;;;5.20;99.90;;;;;;5057531;28;19913;-74
2021/11/20 08:15:48;;;;;;;;;;;5.30;99.90;;;;;;5073220;28;19908;-76
2021/11/20 08:18:14;;;;;;;;;;;5.40;99.90;;;;;;5067514;28;19950;-74
2021/11/20 08:20:40;;;;;;;;;;;5.40;99.90;;;;;;5060257;28;20006;-74
2021/11/20 08:23:09;;;;;;;;;;;5.40;99.90;;;;;;5056660;28;19909;-76
2021/11/20 08:25:37;;;;;;;;;;;5.60;99.90;;;;;;5053729;28;20286;-74
2021/11/20 08:28:03;;;;;;;;;;;5.40;99.90;;;;;;5052389;28;19909;-74
2021/11/20 08:30:29;;;;;;;;;;;5.30;99.90;;;;;;5053296;28;20377;-76
2021/11/20 08:32:55;;;;;;;;;;;5.20;99.90;;;;;;5053254;28;19913;-75
2021/11/20 08:35:21;;;;;;;;;;;5.30;99.90;;;;;;5053650;28;19935;-76
2021/11/20 08:37:47;;;;;;;;;;;5.30;99.90;;;;;;5053554;28;19908;-75
2021/11/20 08:40:14;;;;;;;;;;;5.40;99.90;;;;;;5052836;28;19937;-74
2021/11/20 08:42:41;;;;;;;;;;;5.60;99.90;;;;;;5052937;28;19935;-75
2021/11/20 08:45:08;;;;;;;;;;;5.80;99.90;;;;;;5053184;28;19952;-76
2021/11/20 08:47:34;;;;;;;;;;;5.80;99.90;;;;;;5052983;28;20454;-74
2021/11/20 08:49:59;;;;;;;;;;;5.90;99.90;;;;;;5059941;28;19909;-75
2021/11/20 08:52:25;;;;;;;;;;;5.80;99.90;;;;;;5065347;28;19913;-75
2021/11/20 08:54:56;;;;;;;;;;;5.80;99.90;;;;;;5053011;28;19962;-76
2021/11/20 08:57:22;;;;;;;;;;;5.90;99.90;;;;;;5052964;28;20320;-74
2021/11/20 08:59:48;;;;;;;;;;;6.00;99.90;;;;;;5052480;28;19936;-74
2021/11/20 09:02:26;;;;;;;;;;;6.00;99.90;;;;;;5052516;28;19909;-74
2021/11/20 09:04:57;;;;;;;;;;;6.00;99.90;;;;;;5052810;28;19909;-74
2021/11/20 09:07:42;;;;;;;;;;;5.90;99.90;;;;;;5071932;28;19916;-74
2021/11/20 09:10:28;;;;;;;;;;;5.80;99.90;;;;;;5071174;28;19922;-76
2021/11/20 09:12:57;;;;;;;;;;;5.80;99.90;;;;;;5070744;28;19921;-74
2021/11/20 09:15:34;;;;;;;;;;;5.70;99.90;;;;;;5071970;28;19909;-74
2021/11/20 09:18:00;;;;;;;;;;;5.80;99.90;;;;;;5069030;28;19908;-75
2021/11/20 09:20:26;;;;;;;;;;;5.90;99.90;;;;;;5061095;28;19999;-77
2021/11/20 09:22:51;;;;;;;;;;;5.80;99.90;;;;;;5052840;28;19909;-76
2021/11/20 09:25:17;;;;;;;;;;;5.80;99.90;;;;;;5052264;28;20316;-74
2021/11/20 09:27:43;;;;;;;;;;;5.80;99.90;;;;;;5052303;28;19909;-74
2021/11/20 09:30:11;;;;;;;;;;;5.80;99.90;;;;;;5051924;28;19947;-74
2021/11/20 09:32:36;;;;;;;;;;;5.80;99.90;;;;;;5051044;28;20293;-75
2021/11/20 09:35:03;;;;;;;;;;;5.80;99.90;;;;;;5052237;28;19909;-74
2021/11/20 09:37:28;;;;;;;;;;;5.90;99.90;;;;;;5052095;28;20266;-75
2021/11/20 09:39:54;;;;;;;;;;;5.90;99.90;;;;;;5051710;28;19916;-74
2021/11/20 09:42:26;;;;;;;;;;;6.00;99.90;;;;;;5052063;28;19963;-74
2021/11/20 09:44:53;;;;;;;;;;;6.10;99.90;;;;;;5050846;28;19908;-74
2021/11/20 09:47:22;;;;;;;;;;;6.00;99.90;;;;;;5052310;28;19959;-75
2021/11/20 09:49:49;;;;;;;;;;;6.00;99.90;;;;;;5056701;28;19909;-75
2021/11/20 09:52:15;;;;;;;;;;;6.00;99.90;;;;;;5064618;28;20328;-75
2021/11/20 09:54:41;;;;;;;;;;;5.90;99.90;;;;;;5051784;28;19916;-75
2021/11/20 09:57:10;;;;;;;;;;;6.00;99.90;;;;;;5051318;28;19935;-74
2021/11/20 09:59:38;;;;;;;;;;;5.90;99.90;;;;;;5067301;28;19909;-75
2021/11/20 10:02:13;;;;;;;;;;;6.00;99.90;;;;;;5068419;28;19908;-74
2021/11/20 10:04:57;;;;;;;;;;;5.90;99.90;;;;;;5069114;28;20579;-74
2021/11/20 10:07:22;;;;;;;;;;;6.00;99.90;;;;;;5068243;28;20358;-77
2021/11/20 10:09:50;;;;;;;;;;;6.20;99.90;;;;;;5067758;28;20002;-75
2021/11/20 10:12:22;;;;;;;;;;;6.20;99.90;;;;;;5067221;28;20412;-75
2021/11/20 10:14:54;;;;;;;;;;;6.10;99.90;;;;;;5071441;28;19908;-75
2021/11/20 10:17:29;;;;;;;;;;;6.00;99.90;;;;;;5070162;28;19912;-75
2021/11/20 10:19:57;;;;;;;;;;;5.90;99.90;;;;;;5057311;28;19909;-74
2021/11/20 10:22:28;;;;;;;;;;;6.10;99.90;;;;;;5058709;28;19908;-75
2021/11/20 10:25:09;;;;;;;;;;;6.20;99.90;;;;;;5052235;28;19909;-75
2021/11/20 10:27:55;;;;;;;;;;;6.10;99.90;;;;;;5052060;28;19995;-75
2021/11/20 10:30:23;;;;;;;;;;;6.10;99.90;;;;;;5066654;28;19909;-74
2021/11/20 10:32:49;;;;;;;;;;;6.00;99.90;;;;;;5070963;28;19916;-74
2021/11/20 10:35:23;;;;;;;;;;;6.20;99.90;;;;;;5070544;28;20369;-75
2021/11/20 10:38:03;;;;;;;;;;;6.30;99.90;;;;;;5071144;28;19912;-74
2021/11/20 10:40:31;;;;;;;;;;;6.20;99.90;;;;;;5064944;28;19913;-75
2021/11/20 10:42:59;;;;;;;;;;;5.90;99.90;;;;;;5072837;28;19909;-75
2021/11/20 10:45:31;;;;;;;;;;;6.00;99.90;;;;;;5070494;28;19908;-75
2021/11/20 10:47:58;;;;;;;;;;;6.10;99.90;;;;;;5066917;28;20362;-75
2021/11/20 10:50:27;;;;;;;;;;;6.20;99.90;;;;;;5061176;28;19931;-76
2021/11/20 10:53:04;;;;;;;;;;;6.00;99.90;;;;;;5052589;28;20357;-74
2021/11/20 10:55:36;;;;;;;;;;;5.90;99.90;;;;;;5064298;28;19954;-76
2021/11/20 10:58:20;;;;;;;;;;;5.80;99.90;;;;;;5070413;28;19915;-75
2021/11/20 11:01:04;;;;;;;;;;;5.80;99.90;;;;;;5068530;28;19915;-75
2021/11/20 11:03:35;;;;;;;;;;;5.70;99.90;;;;;;5070306;28;19908;-75
2021/11/20 11:06:20;;;;;;;;;;;5.90;99.90;;;;;;5073834;28;19908;-75
2021/11/20 11:08:45;;;;;;;;;;;6.00;99.90;;;;;;5074184;28;19944;-74
2021/11/20 11:11:26;;;;;;;;;;;6.20;99.90;;;;;;5073342;28;20006;-75
2021/11/20 11:14:01;;;;;;;;;;;6.00;99.90;;;;;;5072954;28;19908;-75
2021/11/20 11:16:30;;;;;;;;;;;6.10;99.90;;;;;;5072699;28;20333;-75
2021/11/20 11:19:24;;;;;;;;;;;6.10;99.90;;;;;;5063149;28;19999;-75
2021/11/20 11:21:57;;;;;;;;;;;6.30;99.90;;;;;;5061706;28;19908;-75
2021/11/20 11:24:26;;;;;;;;;;;6.30;99.90;;;;;;5054698;28;19916;-76
2021/11/20 11:26:54;;;;;;;;;;;6.20;99.90;;;;;;5054923;28;20313;-74
2021/11/20 11:29:22;;;;;;;;;;;5.80;99.90;;;;;;5054604;28;19999;-75
2021/11/20 11:31:48;;;;;;;;;;;5.70;99.90;;;;;;5054176;28;19923;-75
2021/11/20 11:34:20;;;;;;;;;;;5.80;99.90;;;;;;5054240;28;19909;-75
2021/11/20 11:36:51;;;;;;;;;;;5.90;99.90;;;;;;5054283;28;19916;-75
2021/11/20 11:39:22;;;;;;;;;;;5.90;99.90;;;;;;5053210;28;19916;-74
2021/11/20 11:41:55;;;;;;;;;;;6.00;99.90;;;;;;5052838;28;19909;-74
2021/11/20 11:44:26;;;;;;;;;;;5.80;99.90;;;;;;5054421;28;19909;-74
2021/11/20 11:47:00;;;;;;;;;;;5.90;99.90;;;;;;5054192;28;19912;-76
2021/11/20 11:49:29;;;;;;;;;;;5.80;99.90;;;;;;5061869;28;19909;-74
2021/11/20 11:52:13;;;;;;;;;;;5.80;99.90;;;;;;5053685;28;19920;-75
2021/11/20 11:54:41;;;;;;;;;;;5.90;99.90;;;;;;5069046;28;19912;-75
2021/11/20 11:57:12;;;;;;;;;;;5.90;99.90;;;;;;5073177;28;19916;-74
2021/11/20 11:59:47;;;;;;;;;;;5.90;99.90;;;;;;5072903;28;20581;-78
2021/11/20 12:02:13;;;;;;;;;;;5.90;99.90;;;;;;5073429;28;19909;-74
2021/11/20 12:04:41;;;;;;;;;;;6.10;99.90;;;;;;5073128;28;19995;-75
2021/11/20 12:07:13;;;;;;;;;;;5.80;99.90;;;;;;5072992;28;20001;-74
2021/11/20 12:09:45;;;;;;;;;;;5.70;99.90;;;;;;5072489;28;19952;-75
2021/11/20 12:12:13;;;;;;;;;;;5.80;99.90;;;;;;5072870;28;19978;-75
2021/11/20 12:14:44;;;;;;;;;;;5.90;99.90;;;;;;5072879;28;19916;-75
2021/11/20 12:17:26;;;;;;;;;;;5.80;99.90;;;;;;5070712;28;20396;-76
2021/11/20 12:20:06;;;;;;;;;;;5.80;99.90;;;;;;5063151;28;19915;-76
2021/11/20 12:22:53;;;;;;;;;;;5.70;99.90;;;;;;5055925;28;19915;-74
2021/11/20 12:25:37;;;;;;;;;;;5.80;99.90;;;;;;5054263;28;20385;-75
2021/11/20 12:28:08;;;;;;;;;;;5.80;99.90;;;;;;5067393;28;19908;-76
2021/11/20 12:30:33;;;;;;;;;;;5.70;99.90;;;;;;5072374;28;19908;-75
2021/11/20 12:33:17;;;;;;;;;;;5.80;99.90;;;;;;5073098;28;19935;-76
2021/11/20 12:35:49;;;;;;;;;;;5.80;99.90;;;;;;5072914;28;19955;-75
2021/11/20 12:38:29;;;;;;;;;;;6.00;99.90;;;;;;5072704;28;20437;-76
2021/11/20 12:41:13;;;;;;;;;;;5.80;99.90;;;;;;5072189;28;19915;-76
2021/11/20 12:44:02;;;;;;;;;;;5.80;99.90;;;;;;5073386;28;20354;-76
2021/11/20 12:46:28;;;;;;;;;;;5.80;99.90;;;;;;5054956;28;20003;-75
2021/11/20 12:49:05;;;;;;;;;;;5.90;99.90;;;;;;5054619;28;19909;-73
2021/11/20 12:51:49;;;;;;;;;;;6.00;99.90;;;;;;5065825;28;19913;-74
2021/11/20 12:54:27;;;;;;;;;;;6.00;99.90;;;;;;5053463;28;19909;-76
2021/11/20 12:57:11;;;;;;;;;;;6.10;99.90;;;;;;5054061;28;19909;-74
2021/11/20 12:59:40;;;;;;;;;;;5.90;99.90;;;;;;5052090;28;19909;-74
2021/11/20 13:02:08;;;;;;;;;;;5.90;99.90;;;;;;5053871;28;19909;-74
2021/11/20 13:04:42;;;;;;;;;;;6.20;99.90;;;;;;5053358;28;19909;-74
2021/11/20 13:07:09;;;;;;;;;;;6.10;99.90;;;;;;5053557;28;19908;-75
2021/11/20 13:09:49;;;;;;;;;;;6.20;99.90;;;;;;5053016;28;19975;-74
2021/11/20 13:12:26;;;;;;;;;;;6.20;99.90;;;;;;5066365;28;19920;-74
2021/11/20 13:15:09;;;;;;;;;;;6.20;99.90;;;;;;5072266;28;19908;-75
2021/11/20 13:17:46;;;;;;;;;;;6.20;99.90;;;;;;5071079;28;19987;-74
2021/11/20 13:20:16;;;;;;;;;;;6.20;99.90;;;;;;5057769;28;19915;-75
2021/11/20 13:22:42;;;;;;;;;;;6.20;99.90;;;;;;5053420;28;19913;-77
2021/11/20 13:25:13;;;;;;;;;;;6.30;99.90;;;;;;5071542;28;19912;-76
2021/11/20 13:27:39;;;;;;;;;;;6.40;99.90;;;;;;5071454;28;19912;-74
2021/11/20 13:30:05;;;;;;;;;;;6.30;99.90;;;;;;5071197;28;20003;-74
2021/11/20 13:32:31;;;;;;;;;;;6.10;99.90;;;;;;5071562;28;19951;-74
2021/11/20 13:34:57;;;;;;;;;;;6.00;99.90;;;;;;5071609;28;19931;-75
2021/11/20 13:37:23;;;;;;;;;;;6.20;99.90;;;;;;5071669;28;20369;-74
2021/11/20 13:39:49;;;;;;;;;;;6.40;99.90;;;;;;5071029;28;19913;-74
2021/11/20 13:42:14;;;;;;;;;;;6.40;99.90;;;;;;5051923;28;20376;-75
2021/11/20 13:44:41;;;;;;;;;;;6.40;99.90;;;;;;5051127;28;19995;-74
2021/11/20 13:47:07;;;;;;;;;;;6.50;99.90;;;;;;5052403;28;19908;-76
2021/11/20 13:49:32;;;;;;;;;;;6.30;99.90;;;;;;5060640;28;19909;-75
2021/11/20 13:52:08;;;;;;;;;;;6.20;99.90;;;;;;5056879;28;20433;-74
2021/11/20 13:54:34;;;;;;;;;;;6.20;99.90;;;;;;5052558;28;20412;-74
2021/11/20 13:56:59;;;;;;;;;;;6.10;99.90;;;;;;5052664;28;19909;-75
2021/11/20 13:59:25;;;;;;;;;;;6.10;99.90;;;;;;5050786;28;19915;-76
2021/11/20 14:01:52;;;;;;;;;;;6.20;99.90;;;;;;5050641;28;19913;-74
2021/11/20 14:04:19;;;;;;;;;;;6.20;99.90;;;;;;5052210;28;19909;-73
2021/11/20 14:06:44;;;;;;;;;;;6.10;99.90;;;;;;5052200;28;20433;-73
2021/11/20 14:09:13;;;;;;;;;;;6.20;99.90;;;;;;5052055;28;19948;-73
2021/11/20 14:11:41;;;;;;;;;;;6.20;99.90;;;;;;5051592;28;20361;-73
2021/11/20 14:14:06;;;;;;;;;;;6.20;99.90;;;;;;5052521;28;20315;-75
2021/11/20 14:16:36;;;;;;;;;;;6.20;99.90;;;;;;5051818;28;20054;-76
2021/11/20 14:19:03;;;;;;;;;;;6.00;99.90;;;;;;5053110;28;19909;-75
2021/11/20 14:21:30;;;;;;;;;;;6.10;99.90;;;;;;5066202;28;19999;-72
2021/11/20 14:24:01;;;;;;;;;;;6.10;99.90;;;;;;5066084;28;19909;-75
2021/11/20 14:26:27;;;;;;;;;;;6.10;99.90;;;;;;5074509;28;19951;-75
2021/11/20 14:28:58;;;;;;;;;;;6.20;99.90;;;;;;5073642;28;20276;-75
2021/11/20 14:31:23;;;;;;;;;;;6.20;99.90;;;;;;5070774;28;19967;-75
2021/11/20 14:33:49;;;;;;;;;;;6.20;99.90;;;;;;5070492;28;19913;-76
2021/11/20 14:36:14;;;;;;;;;;;6.10;99.90;;;;;;5069247;28;19908;-76
2021/11/20 14:38:46;;;;;;;;;;;6.10;99.90;;;;;;5070466;28;19909;-74
2021/11/20 14:41:12;;;;;;;;;;;6.10;99.90;;;;;;5074089;28;20335;-76
2021/11/20 14:43:37;;;;;;;;;;;6.00;99.90;;;;;;5073210;28;19909;-75